Time;durP1;ratioP1;P1;durP2;ratioP2;P2;SDS_P1;SDS_P2;PMS_P1;PMS_P2;Temp;Humidity;BMP_temperature;BMP_pressure;BME280_temperature;BME280_humidity;BME280_pressure;Samples;Min_cycle;Max_cycle;Signal;HPM_P1;HPM_P2
2023/07/27 00:01:31;;;;;;;4.83;3.97;;;15.80;99.90;;;;;;5028004;28;20236;-67
2023/07/27 00:04:01;;;;;;;4.90;4.17;;;15.70;99.90;;;;;;5026964;28;20226;-67
2023/07/27 00:06:29;;;;;;;5.80;4.17;;;15.70;99.90;;;;;;5009581;28;20213;-67
2023/07/27 00:08:57;;;;;;;5.87;4.30;;;15.70;99.90;;;;;;5018859;28;20234;-67
2023/07/27 00:11:26;;;;;;;5.83;4.67;;;15.70;99.90;;;;;;5024891;28;20209;-67
2023/07/27 00:13:54;;;;;;;4.90;4.10;;;15.70;99.90;;;;;;5029349;28;20630;-66
2023/07/27 00:16:22;;;;;;;6.07;4.57;;;15.70;99.90;;;;;;5025051;28;20645;-66
2023/07/27 00:18:51;;;;;;;5.27;4.40;;;15.60;99.90;;;;;;5024254;28;22058;-66
2023/07/27 00:21:21;;;;;;;7.03;4.80;;;15.60;99.90;;;;;;5022746;28;20307;-66
2023/07/27 00:23:49;;;;;;;7.90;4.67;;;15.60;99.90;;;;;;5024115;28;20231;-65
2023/07/27 00:26:18;;;;;;;5.23;4.70;;;15.60;99.90;;;;;;5026216;28;20204;-66
2023/07/27 00:28:46;;;;;;;7.10;4.97;;;15.50;99.90;;;;;;5029741;28;20207;-66
2023/07/27 00:31:15;;;;;;;7.37;4.70;;;15.40;99.90;;;;;;5021600;28;20239;-66
2023/07/27 00:33:43;;;;;;;6.60;5.33;;;15.40;99.90;;;;;;5034465;28;20220;-66
2023/07/27 00:36:12;;;;;;;6.33;5.60;;;15.40;99.90;;;;;;5027885;28;20268;-65
2023/07/27 00:38:41;;;;;;;8.63;5.37;;;15.30;99.90;;;;;;5016388;28;20223;-65
2023/07/27 00:41:10;;;;;;;11.27;5.80;;;15.30;99.90;;;;;;5029991;28;20196;-66
2023/07/27 00:43:38;;;;;;;8.33;5.77;;;15.30;99.90;;;;;;5030153;28;20253;-65
2023/07/27 00:46:07;;;;;;;8.83;5.70;;;15.30;99.90;;;;;;5024332;28;20224;-65
2023/07/27 00:48:35;;;;;;;9.40;5.97;;;15.30;99.90;;;;;;5031598;28;20248;-65
2023/07/27 00:51:04;;;;;;;8.53;5.83;;;15.20;99.90;;;;;;5049771;28;20235;-65
2023/07/27 00:53:32;;;;;;;10.47;6.33;;;15.20;99.90;;;;;;5049109;28;20228;-65
2023/07/27 00:56:03;;;;;;;8.40;6.03;;;15.20;99.90;;;;;;5049083;28;20203;-65
2023/07/27 00:58:31;;;;;;;11.30;6.40;;;15.10;99.90;;;;;;5044840;28;20218;-66
2023/07/27 01:01:02;;;;;;;8.97;6.40;;;15.20;99.90;;;;;;5050717;28;20224;-65
2023/07/27 01:03:31;;;;;;;10.07;6.43;;;15.10;99.90;;;;;;5053355;28;20229;-65
2023/07/27 01:06:00;;;;;;;9.03;6.90;;;15.10;99.90;;;;;;5054188;28;20242;-65
2023/07/27 01:08:28;;;;;;;11.17;7.90;;;15.10;99.90;;;;;;5048656;28;20221;-65
2023/07/27 01:11:01;;;;;;;11.90;6.73;;;15.10;99.90;;;;;;5051670;28;20215;-65
2023/07/27 01:13:38;;;;;;;12.00;7.53;;;15.10;99.90;;;;;;5050768;28;20214;-65
2023/07/27 01:16:12;;;;;;;9.70;7.13;;;15.10;99.90;;;;;;5053716;28;20570;-65
2023/07/27 01:18:47;;;;;;;11.07;7.67;;;15.20;99.90;;;;;;5046340;28;20287;-64
2023/07/27 01:21:20;;;;;;;14.63;8.20;;;15.20;99.90;;;;;;5047316;28;20221;-65
2023/07/27 01:24:29;;;;;;;18.50;8.57;;;15.10;99.90;;;;;;5051379;28;20565;-65
2023/07/27 01:27:16;;;;;;;13.93;8.10;;;15.20;99.90;;;;;;5020729;28;20229;-65
2023/07/27 01:30:20;;;;;;;12.77;8.40;;;15.10;99.90;;;;;;5048339;28;20217;-65
2023/07/27 01:32:56;;;;;;;16.40;7.87;;;15.20;99.90;;;;;;5051222;28;20227;-65
2023/07/27 01:35:28;;;;;;;11.33;8.10;;;15.20;99.90;;;;;;5048310;28;20629;-65
2023/07/27 01:37:58;;;;;;;15.10;8.47;;;15.20;99.90;;;;;;5047554;28;20198;-65
2023/07/27 01:40:27;;;;;;;12.93;8.13;;;15.20;99.90;;;;;;5047771;28;20217;-65
2023/07/27 01:42:57;;;;;;;14.90;7.57;;;15.20;99.90;;;;;;5029276;28;20250;-66
2023/07/27 01:45:25;;;;;;;13.63;7.93;;;15.20;99.90;;;;;;5047724;28;20559;-65
2023/07/27 01:47:55;;;;;;;11.43;7.20;;;15.20;99.90;;;;;;5042608;28;20228;-65
2023/07/27 01:50:24;;;;;;;15.07;7.40;;;15.20;99.90;;;;;;5046844;28;20215;-65
2023/07/27 01:52:54;;;;;;;11.40;6.93;;;15.20;99.90;;;;;;5050732;28;20196;-66
2023/07/27 01:55:24;;;;;;;12.77;7.73;;;15.20;99.90;;;;;;5050806;28;20212;-65
2023/07/27 01:57:53;;;;;;;15.57;8.30;;;15.20;99.90;;;;;;5048457;28;20228;-65
2023/07/27 02:00:22;;;;;;;11.87;7.43;;;15.20;99.90;;;;;;5052301;28;20220;-65
2023/07/27 02:02:50;;;;;;;11.07;7.73;;;15.20;99.90;;;;;;5055090;28;20576;-66
2023/07/27 02:05:21;;;;;;;10.20;7.47;;;15.20;99.90;;;;;;5045634;28;20190;-65
2023/07/27 02:07:50;;;;;;;18.03;7.07;;;15.20;99.90;;;;;;5045769;28;20189;-66
2023/07/27 02:10:20;;;;;;;13.20;7.13;;;15.20;99.90;;;;;;5048494;28;20229;-66
2023/07/27 02:12:53;;;;;;;7.77;6.33;;;15.30;99.90;;;;;;5047413;28;20223;-65
2023/07/27 02:15:26;;;;;;;10.50;6.87;;;15.20;99.90;;;;;;5045720;28;20232;-66
2023/07/27 02:18:00;;;;;;;11.93;7.53;;;15.20;99.90;;;;;;5047226;28;20216;-66
2023/07/27 02:20:33;;;;;;;9.00;6.97;;;15.20;99.90;;;;;;5046751;28;20283;-65
2023/07/27 02:23:04;;;;;;;9.53;6.67;;;15.20;99.90;;;;;;5047247;28;20780;-65
2023/07/27 02:25:32;;;;;;;9.63;6.60;;;15.30;99.90;;;;;;5048926;28;20221;-65
2023/07/27 02:28:01;;;;;;;6.90;5.70;;;15.30;99.90;;;;;;5048592;28;20234;-65
2023/07/27 02:30:29;;;;;;;9.77;6.30;;;15.30;99.90;;;;;;5049414;28;20229;-65
2023/07/27 02:32:57;;;;;;;7.50;5.60;;;15.30;99.90;;;;;;5046311;28;20222;-66
2023/07/27 02:35:25;;;;;;;6.50;5.50;;;15.30;99.90;;;;;;5048663;28;20240;-66
2023/07/27 02:37:55;;;;;;;12.30;5.87;;;15.30;99.90;;;;;;5046595;28;20210;-66
2023/07/27 02:40:24;;;;;;;8.60;5.63;;;15.30;99.90;;;;;;5042425;28;20313;-66
2023/07/27 02:42:52;;;;;;;9.17;6.20;;;15.30;99.90;;;;;;5047804;28;20634;-65
2023/07/27 02:45:20;;;;;;;6.07;5.47;;;15.30;99.90;;;;;;5046310;28;20609;-66
2023/07/27 02:47:49;;;;;;;7.40;5.53;;;15.40;99.90;;;;;;5040940;28;20578;-65
2023/07/27 02:50:17;;;;;;;7.30;5.97;;;15.40;99.90;;;;;;5047359;28;20660;-65
2023/07/27 02:52:45;;;;;;;5.87;5.37;;;15.40;99.90;;;;;;5029845;28;20217;-66
2023/07/27 02:55:15;;;;;;;7.37;6.30;;;15.40;99.90;;;;;;5042421;28;20220;-65
2023/07/27 02:57:44;;;;;;;8.97;5.60;;;15.40;99.90;;;;;;5038986;28;20230;-65
2023/07/27 03:00:13;;;;;;;10.03;6.53;;;15.40;99.90;;;;;;5042133;28;20219;-66
2023/07/27 03:02:41;;;;;;;5.93;5.43;;;15.40;99.90;;;;;;5045755;28;20235;-66
2023/07/27 03:05:10;;;;;;;6.40;5.80;;;15.40;99.90;;;;;;5044157;28;20250;-65
2023/07/27 03:07:38;;;;;;;8.47;6.17;;;15.50;99.90;;;;;;5044919;28;20216;-65
2023/07/27 03:10:07;;;;;;;6.20;5.60;;;15.50;99.90;;;;;;5047371;28;20225;-65
2023/07/27 03:12:37;;;;;;;8.73;6.13;;;15.50;99.90;;;;;;5036837;28;20226;-64
2023/07/27 03:15:06;;;;;;;7.80;6.20;;;15.50;99.90;;;;;;5044435;28;20631;-65
2023/07/27 03:17:35;;;;;;;9.47;6.23;;;15.50;99.90;;;;;;5048338;28;20226;-65
2023/07/27 03:20:04;;;;;;;8.80;6.07;;;15.50;99.90;;;;;;5046660;28;20296;-65
2023/07/27 03:22:32;;;;;;;6.13;5.53;;;15.50;99.90;;;;;;5042215;28;20212;-65
2023/07/27 03:25:01;;;;;;;7.93;6.37;;;15.50;99.90;;;;;;5044798;28;20782;-65
2023/07/27 03:27:29;;;;;;;7.60;6.17;;;15.50;99.90;;;;;;5044159;28;20228;-65
2023/07/27 03:29:59;;;;;;;6.63;5.73;;;15.60;99.90;;;;;;5045348;28;20235;-65
2023/07/27 03:32:27;;;;;;;9.03;5.70;;;15.60;99.90;;;;;;5041449;28;20316;-65
2023/07/27 03:34:55;;;;;;;6.47;5.87;;;15.60;99.90;;;;;;5043395;28;20197;-65
2023/07/27 03:37:24;;;;;;;6.57;5.87;;;15.60;99.90;;;;;;5043336;28;20237;-65
2023/07/27 03:39:52;;;;;;;8.30;6.40;;;15.60;99.90;;;;;;5044423;28;20219;-64
2023/07/27 03:42:20;;;;;;;7.63;6.30;;;15.60;99.90;;;;;;5044221;28;20684;-65
2023/07/27 03:44:49;;;;;;;7.97;5.83;;;15.60;99.90;;;;;;5041248;28;20663;-65
2023/07/27 03:47:19;;;;;;;8.30;6.47;;;15.70;99.90;;;;;;5047625;28;20194;-65
2023/07/27 03:49:47;;;;;;;8.63;6.53;;;15.70;99.90;;;;;;5044383;28;20242;-64
2023/07/27 03:52:15;;;;;;;7.90;7.10;;;15.80;99.90;;;;;;5044037;28;20237;-65
2023/07/27 03:54:44;;;;;;;8.03;6.97;;;15.80;99.90;;;;;;5040550;28;20229;-65
2023/07/27 03:57:12;;;;;;;9.30;7.07;;;15.80;99.90;;;;;;5047350;28;20224;-65
2023/07/27 03:59:40;;;;;;;8.63;7.30;;;15.80;99.90;;;;;;5037457;28;20226;-64
2023/07/27 04:02:09;;;;;;;11.03;7.60;;;15.80;99.90;;;;;;5044784;28;20224;-65
2023/07/27 04:04:39;;;;;;;11.07;7.93;;;15.90;99.90;;;;;;5040919;28;20197;-65
2023/07/27 04:07:08;;;;;;;9.87;7.07;;;15.90;99.90;;;;;;5031162;28;20578;-65
2023/07/27 04:09:36;;;;;;;9.10;7.40;;;15.90;99.90;;;;;;5044281;28;20225;-65
2023/07/27 04:12:05;;;;;;;12.97;7.93;;;15.90;99.90;;;;;;5030302;28;20230;-65
2023/07/27 04:14:33;;;;;;;11.43;7.87;;;16.00;99.90;;;;;;5056336;28;20228;-65
2023/07/27 04:17:02;;;;;;;10.80;8.43;;;16.00;99.90;;;;;;5051914;28;20570;-64
2023/07/27 04:19:30;;;;;;;15.27;9.30;;;16.00;99.90;;;;;;5047382;28;20679;-65
2023/07/27 04:22:00;;;;;;;12.70;9.27;;;16.00;99.90;;;;;;5050490;28;20307;-65
2023/07/27 04:24:28;;;;;;;16.60;8.97;;;16.10;99.90;;;;;;5051493;28;20721;-64
2023/07/27 04:26:56;;;;;;;10.10;8.47;;;16.10;99.90;;;;;;5052161;28;20629;-64
2023/07/27 04:29:25;;;;;;;13.77;10.00;;;16.10;99.90;;;;;;5051342;28;21406;-64
2023/07/27 04:31:53;;;;;;;14.07;9.30;;;16.10;99.90;;;;;;5048890;28;20230;-65
2023/07/27 04:34:21;;;;;;;12.60;9.47;;;16.10;99.90;;;;;;5047553;28;20227;-65
2023/07/27 04:36:50;;;;;;;15.30;9.73;;;16.20;99.90;;;;;;5046212;28;20257;-64
2023/07/27 04:39:19;;;;;;;14.80;9.53;;;16.20;99.90;;;;;;5050320;28;20221;-64
2023/07/27 04:41:47;;;;;;;12.87;9.73;;;16.20;99.90;;;;;;5045705;28;20665;-64
2023/07/27 04:44:16;;;;;;;11.50;9.80;;;16.20;99.90;;;;;;5045539;28;20195;-64
2023/07/27 04:46:44;;;;;;;16.17;10.37;;;16.20;99.90;;;;;;5048216;28;20193;-65
2023/07/27 04:49:12;;;;;;;15.33;10.10;;;16.30;99.90;;;;;;5030819;28;20320;-65
2023/07/27 04:51:41;;;;;;;13.13;10.30;;;16.30;99.90;;;;;;5048779;28;20216;-65
2023/07/27 04:54:11;;;;;;;15.63;10.53;;;16.30;99.90;;;;;;5054438;28;20226;-65
2023/07/27 04:56:40;;;;;;;17.00;10.53;;;16.40;99.90;;;;;;5052526;28;20224;-65
2023/07/27 04:59:08;;;;;;;14.97;10.77;;;16.40;99.90;;;;;;5047088;28;20196;-64
2023/07/27 05:01:37;;;;;;;15.77;10.73;;;16.40;99.90;;;;;;5044287;28;20281;-65
2023/07/27 05:04:05;;;;;;;18.67;11.67;;;16.40;99.90;;;;;;5052115;28;20320;-65
2023/07/27 05:06:34;;;;;;;17.87;11.43;;;16.40;99.90;;;;;;5050058;28;20678;-65
2023/07/27 05:09:04;;;;;;;15.70;11.13;;;16.40;99.90;;;;;;5056529;28;20253;-65
2023/07/27 05:11:33;;;;;;;18.73;10.97;;;16.40;99.90;;;;;;5047899;28;20315;-64
2023/07/27 05:14:02;;;;;;;19.90;11.40;;;16.40;99.90;;;;;;5050979;28;20214;-65
2023/07/27 05:16:31;;;;;;;14.90;11.40;;;16.50;99.90;;;;;;5045538;28;20329;-64
2023/07/27 05:19:00;;;;;;;20.33;11.13;;;16.50;99.90;;;;;;5049771;28;20594;-64
2023/07/27 05:21:28;;;;;;;19.57;12.23;;;16.50;99.90;;;;;;5051652;28;20222;-65
2023/07/27 05:23:56;;;;;;;19.73;12.10;;;16.60;99.90;;;;;;5046739;28;20219;-64
2023/07/27 05:26:26;;;;;;;18.70;13.27;;;16.60;99.90;;;;;;5034611;28;20199;-64
2023/07/27 05:28:54;;;;;;;20.30;13.33;;;16.60;99.90;;;;;;5046501;28;20213;-65
2023/07/27 05:31:27;;;;;;;21.70;13.97;;;16.60;99.90;;;;;;5051484;28;20622;-65
2023/07/27 05:33:56;;;;;;;22.23;13.97;;;16.60;99.90;;;;;;5026099;28;20363;-65
2023/07/27 05:36:24;;;;;;;19.50;12.80;;;16.70;99.90;;;;;;5043934;28;20223;-65
2023/07/27 05:38:52;;;;;;;16.80;11.50;;;16.70;99.90;;;;;;5031665;28;20216;-64
2023/07/27 05:41:21;;;;;;;15.33;11.10;;;16.70;99.90;;;;;;5031630;28;20536;-64
2023/07/27 05:43:49;;;;;;;16.37;11.90;;;16.70;99.90;;;;;;5047975;28;20214;-64
2023/07/27 05:46:17;;;;;;;15.80;11.83;;;16.70;99.90;;;;;;5054112;28;20276;-64
2023/07/27 05:48:47;;;;;;;15.03;11.60;;;16.70;99.90;;;;;;5054009;28;20307;-64
2023/07/27 05:51:16;;;;;;;13.63;10.93;;;16.70;99.90;;;;;;5048740;28;20224;-64
2023/07/27 05:53:44;;;;;;;15.43;10.77;;;16.80;99.90;;;;;;5050601;28;20366;-64
2023/07/27 05:56:12;;;;;;;13.20;9.90;;;16.80;99.90;;;;;;5045241;28;20196;-64
2023/07/27 05:58:57;;;;;;;9.43;8.27;;;16.80;99.90;;;;;;5045052;28;20695;-64
2023/07/27 06:01:26;;;;;;;10.00;8.10;;;16.80;99.90;;;;;;5049511;28;20212;-64
2023/07/27 06:04:00;;;;;;;7.63;7.03;;;16.80;99.90;;;;;;5048407;28;20243;-64
2023/07/27 06:06:36;;;;;;;6.60;5.93;;;16.90;99.90;;;;;;5040062;28;20777;-64
2023/07/27 06:09:05;;;;;;;6.43;5.90;;;16.90;99.90;;;;;;5050072;28;20223;-64
2023/07/27 06:11:33;;;;;;;6.67;5.63;;;16.80;99.90;;;;;;5048468;28;20235;-64
2023/07/27 06:14:02;;;;;;;6.30;5.27;;;16.90;99.90;;;;;;5049900;28;20200;-64
2023/07/27 06:16:30;;;;;;;4.83;4.53;;;16.90;99.90;;;;;;5045936;28;20253;-65
2023/07/27 06:19:00;;;;;;;5.10;4.70;;;16.90;99.90;;;;;;5043596;28;20227;-65
2023/07/27 06:21:28;;;;;;;5.43;4.93;;;16.90;99.90;;;;;;5042844;28;20342;-65
2023/07/27 06:23:57;;;;;;;4.70;4.40;;;16.90;99.90;;;;;;5050543;28;20233;-65
2023/07/27 06:26:25;;;;;;;4.67;4.37;;;16.90;99.90;;;;;;5042438;28;20209;-65
2023/07/27 06:28:54;;;;;;;6.20;4.50;;;16.90;99.90;;;;;;5044039;28;20541;-65
2023/07/27 06:31:22;;;;;;;5.10;4.60;;;16.90;99.90;;;;;;5043408;28;20222;-65
2023/07/27 06:33:50;;;;;;;5.20;4.80;;;16.90;99.90;;;;;;5046694;28;20220;-64
2023/07/27 06:36:20;;;;;;;5.13;4.70;;;16.90;99.90;;;;;;5044015;28;20573;-65
2023/07/27 06:38:49;;;;;;;5.97;4.57;;;16.90;99.90;;;;;;5031591;28;20228;-64
2023/07/27 06:41:19;;;;;;;4.33;3.93;;;17.00;99.90;;;;;;5028706;28;20253;-64
2023/07/27 06:43:48;;;;;;;4.83;4.40;;;17.00;99.90;;;;;;5046658;28;20192;-64
2023/07/27 06:46:18;;;;;;;4.03;3.80;;;17.00;99.90;;;;;;5047008;28;20212;-64
2023/07/27 06:48:47;;;;;;;3.90;3.40;;;17.00;99.90;;;;;;5045989;28;20228;-64
2023/07/27 06:51:15;;;;;;;3.60;3.40;;;17.00;99.90;;;;;;5042422;28;20221;-64
2023/07/27 06:53:45;;;;;;;3.47;3.27;;;17.00;99.90;;;;;;5048355;28;20697;-65
2023/07/27 06:56:17;;;;;;;3.20;3.03;;;17.00;99.90;;;;;;5042039;28;20190;-65
2023/07/27 06:58:45;;;;;;;3.67;3.47;;;17.00;99.90;;;;;;5045246;28;20199;-65
2023/07/27 07:01:14;;;;;;;2.90;2.70;;;17.00;99.90;;;;;;5043355;28;20223;-65
2023/07/27 07:03:42;;;;;;;2.80;2.70;;;17.00;99.90;;;;;;5041982;28;20224;-64
2023/07/27 07:06:11;;;;;;;3.73;3.47;;;17.00;99.90;;;;;;5043094;28;20226;-64
2023/07/27 07:08:39;;;;;;;3.33;2.90;;;16.90;99.90;;;;;;5044958;28;20230;-64
2023/07/27 07:11:09;;;;;;;5.63;3.47;;;16.90;99.90;;;;;;5044778;28;20602;-64
2023/07/27 07:13:38;;;;;;;3.50;3.10;;;17.00;99.90;;;;;;5045088;28;20555;-64
2023/07/27 07:16:07;;;;;;;5.37;2.87;;;17.10;99.90;;;;;;5044674;28;20555;-64
2023/07/27 07:18:35;;;;;;;3.53;3.27;;;17.20;99.90;;;;;;5045087;28;20226;-64
2023/07/27 07:21:03;;;;;;;3.00;2.80;;;17.20;99.90;;;;;;5046303;28;20243;-65
2023/07/27 07:23:31;;;;;;;2.93;2.50;;;17.30;99.90;;;;;;5046821;28;20697;-64
2023/07/27 07:26:00;;;;;;;2.57;2.37;;;17.40;99.90;;;;;;5032481;28;20205;-65
2023/07/27 07:28:30;;;;;;;2.60;2.50;;;17.30;99.90;;;;;;5046309;28;20224;-64
2023/07/27 07:30:58;;;;;;;2.80;2.47;;;17.30;99.90;;;;;;5047810;28;20583;-64
2023/07/27 07:33:26;;;;;;;2.40;2.30;;;17.40;99.90;;;;;;5048365;28;20231;-64
2023/07/27 07:35:55;;;;;;;2.20;2.10;;;17.30;99.90;;;;;;5049715;28;20224;-64
2023/07/27 07:38:23;;;;;;;4.03;2.13;;;17.30;99.90;;;;;;5045073;28;20196;-65
2023/07/27 07:40:51;;;;;;;4.93;2.40;;;17.30;99.90;;;;;;5043131;28;20200;-65
2023/07/27 07:43:20;;;;;;;2.00;1.90;;;17.30;99.90;;;;;;5048851;28;20227;-64
2023/07/27 07:45:50;;;;;;;1.80;1.73;;;17.30;99.90;;;;;;5047831;28;20600;-64
2023/07/27 07:48:18;;;;;;;3.67;2.17;;;17.20;99.90;;;;;;5040895;28;20295;-64
2023/07/27 07:50:47;;;;;;;2.17;2.07;;;17.20;99.90;;;;;;5024376;28;20690;-64
2023/07/27 07:53:15;;;;;;;2.30;2.20;;;17.20;99.90;;;;;;5026978;28;20203;-64
2023/07/27 07:56:01;;;;;;;4.93;1.90;;;17.30;99.90;;;;;;5023998;28;20180;-64
2023/07/27 07:58:30;;;;;;;2.20;2.10;;;17.40;99.90;;;;;;5024921;28;20235;-64
2023/07/27 08:00:59;;;;;;;2.27;2.17;;;17.30;99.90;;;;;;5007010;28;20244;-64
2023/07/27 08:03:28;;;;;;;2.40;2.10;;;17.40;99.90;;;;;;5024963;28;20220;-64
2023/07/27 08:05:57;;;;;;;2.47;1.90;;;17.40;99.90;;;;;;5020509;28;20217;-64
2023/07/27 08:08:26;;;;;;;2.23;2.10;;;17.30;99.90;;;;;;5029636;28;20189;-64
2023/07/27 08:11:00;;;;;;;2.17;2.03;;;17.40;99.90;;;;;;5011682;28;20193;-64
2023/07/27 08:13:28;;;;;;;3.13;2.20;;;17.50;99.90;;;;;;5024243;28;20217;-64
2023/07/27 08:15:59;;;;;;;1.93;1.70;;;17.60;99.90;;;;;;5025221;28;20770;-65
2023/07/27 08:18:28;;;;;;;1.63;1.63;;;17.60;99.90;;;;;;5029095;28;20217;-64
2023/07/27 08:21:01;;;;;;;1.93;1.83;;;17.60;99.90;;;;;;5021264;28;20284;-64
2023/07/27 08:23:29;;;;;;;2.03;1.93;;;17.50;99.90;;;;;;5024045;28;20625;-64
2023/07/27 08:25:58;;;;;;;2.03;1.73;;;17.50;99.90;;;;;;5027150;28;20288;-65
2023/07/27 08:28:26;;;;;;;2.00;1.80;;;17.60;99.90;;;;;;5026503;28;20863;-64
2023/07/27 08:30:55;;;;;;;1.67;1.60;;;17.60;99.90;;;;;;5025547;28;20228;-64
2023/07/27 08:33:25;;;;;;;2.07;1.97;;;17.60;99.90;;;;;;5020859;28;20220;-64
2023/07/27 08:35:53;;;;;;;1.50;1.50;;;17.60;99.90;;;;;;5005946;28;20240;-64
2023/07/27 08:38:23;;;;;;;1.70;1.60;;;17.60;99.90;;;;;;5024738;28;20245;-64
2023/07/27 08:40:55;;;;;;;1.60;1.60;;;17.70;99.90;;;;;;5027580;28;20202;-64
2023/07/27 08:43:23;;;;;;;1.63;1.60;;;17.70;99.90;;;;;;5024459;28;20220;-64
2023/07/27 08:45:52;;;;;;;3.10;1.50;;;17.80;99.90;;;;;;5022886;28;20221;-65
2023/07/27 08:48:23;;;;;;;1.30;1.30;;;17.80;99.90;;;;;;5030051;28;20233;-64
2023/07/27 08:50:54;;;;;;;1.90;1.10;;;17.80;99.90;;;;;;5026955;28;20221;-65
2023/07/27 08:53:22;;;;;;;3.40;1.47;;;17.80;99.90;;;;;;5028117;28;20197;-65
2023/07/27 08:55:51;;;;;;;1.30;1.30;;;17.80;99.90;;;;;;5037059;28;20304;-65
2023/07/27 08:58:20;;;;;;;1.10;1.10;;;17.90;99.90;;;;;;5030104;28;20236;-64
2023/07/27 09:00:49;;;;;;;1.20;1.10;;;17.90;99.90;;;;;;5026043;28;20217;-64
2023/07/27 09:03:17;;;;;;;1.20;1.10;;;17.90;99.90;;;;;;5007536;28;20663;-65
2023/07/27 09:05:56;;;;;;;1.30;1.30;;;17.90;99.90;;;;;;5030500;28;20217;-65
2023/07/27 09:08:29;;;;;;;1.30;1.30;;;17.90;99.90;;;;;;5030342;28;20205;-64
2023/07/27 09:11:05;;;;;;;1.13;1.10;;;18.00;99.90;;;;;;5030930;28;20284;-64
2023/07/27 09:13:34;;;;;;;1.10;1.10;;;18.00;99.90;;;;;;5031441;28;20267;-65
2023/07/27 09:16:05;;;;;;;1.50;1.30;;;18.00;99.90;;;;;;5033215;28;20232;-64
2023/07/27 09:18:40;;;;;;;1.07;1.07;;;18.00;99.90;;;;;;5012980;28;20218;-64
2023/07/27 09:21:09;;;;;;;0.87;0.87;;;18.00;99.90;;;;;;5031522;28;20239;-65
2023/07/27 09:23:39;;;;;;;1.10;1.10;;;18.10;99.90;;;;;;5028508;28;20708;-65
2023/07/27 09:26:08;;;;;;;1.00;1.00;;;18.20;99.90;;;;;;5013026;28;20196;-65
2023/07/27 09:28:36;;;;;;;1.10;1.10;;;18.20;99.90;;;;;;5031562;28;20201;-65
2023/07/27 09:31:05;;;;;;;1.27;1.10;;;18.40;99.90;;;;;;5028559;28;20229;-64
2023/07/27 09:33:33;;;;;;;1.00;0.90;;;18.30;99.90;;;;;;5029035;28;20275;-64
2023/07/27 09:36:03;;;;;;;1.00;1.00;;;18.30;99.90;;;;;;5027308;28;20228;-64
2023/07/27 09:38:32;;;;;;;0.90;0.90;;;18.40;99.90;;;;;;5005768;28;20229;-64
2023/07/27 09:41:08;;;;;;;0.90;0.90;;;18.50;99.90;;;;;;5024550;28;20248;-64
2023/07/27 09:43:40;;;;;;;0.83;0.83;;;18.50;99.90;;;;;;5027745;28;20237;-64
2023/07/27 09:46:08;;;;;;;0.80;0.80;;;18.60;99.90;;;;;;5008441;28;20241;-64
2023/07/27 09:48:37;;;;;;;0.60;0.60;;;18.70;99.90;;;;;;5029767;28;20256;-64
2023/07/27 09:51:08;;;;;;;0.80;0.80;;;18.60;99.90;;;;;;5048581;28;20702;-64
2023/07/27 09:53:38;;;;;;;1.70;0.80;;;18.70;99.90;;;;;;5046145;28;20228;-65
2023/07/27 09:56:08;;;;;;;0.90;0.90;;;18.70;99.90;;;;;;5024583;28;20240;-64
2023/07/27 09:58:39;;;;;;;3.17;1.10;;;18.80;99.90;;;;;;5044206;28;20235;-65
2023/07/27 10:01:08;;;;;;;0.90;0.90;;;18.80;99.90;;;;;;5050694;28;20221;-64
2023/07/27 10:03:36;;;;;;;1.10;1.10;;;18.80;99.90;;;;;;5047115;28;20772;-64
2023/07/27 10:06:06;;;;;;;1.20;1.10;;;18.90;99.90;;;;;;5021842;28;20680;-64
2023/07/27 10:08:34;;;;;;;1.03;1.03;;;18.90;99.90;;;;;;5046534;28;20220;-63
2023/07/27 10:11:03;;;;;;;1.23;1.23;;;18.80;99.90;;;;;;5056906;28;20193;-64
2023/07/27 10:13:44;;;;;;;1.30;1.30;;;18.70;99.90;;;;;;5048707;28;20223;-64
2023/07/27 10:16:19;;;;;;;1.20;1.20;;;18.80;99.90;;;;;;5040232;28;20248;-64
2023/07/27 10:18:52;;;;;;;1.30;1.30;;;18.80;99.90;;;;;;5049072;28;20231;-64
2023/07/27 10:21:23;;;;;;;1.20;1.20;;;18.70;99.90;;;;;;5042471;28;20217;-64
2023/07/27 10:23:57;;;;;;;1.30;1.30;;;18.80;99.90;;;;;;5048482;28;20219;-64
2023/07/27 10:26:46;;;;;;;1.30;1.20;;;18.80;99.90;;;;;;5047554;28;20264;-64
2023/07/27 10:29:18;;;;;;;1.17;1.17;;;18.90;99.90;;;;;;5031396;28;20663;-64
2023/07/27 10:32:00;;;;;;;1.10;1.10;;;19.10;99.90;;;;;;5047784;28;20201;-64
2023/07/27 10:34:29;;;;;;;1.50;1.50;;;19.10;99.90;;;;;;5048054;28;20217;-64
2023/07/27 10:37:08;;;;;;;1.13;1.13;;;19.20;99.90;;;;;;5049780;28;21378;-64
2023/07/27 10:39:44;;;;;;;1.30;1.30;;;19.20;99.90;;;;;;5045551;28;20239;-64
2023/07/27 10:42:15;;;;;;;1.43;1.37;;;19.20;99.90;;;;;;5045117;28;20552;-63
2023/07/27 10:44:47;;;;;;;1.10;1.10;;;19.20;99.90;;;;;;5042952;28;20554;-64
2023/07/27 10:47:17;;;;;;;2.53;1.30;;;19.30;99.90;;;;;;5046974;28;20650;-63
2023/07/27 10:49:48;;;;;;;1.30;1.30;;;19.50;99.90;;;;;;5049600;28;20323;-64
2023/07/27 10:52:18;;;;;;;1.00;1.00;;;19.40;99.90;;;;;;5038495;28;20216;-64
2023/07/27 10:54:48;;;;;;;1.60;1.60;;;19.40;99.90;;;;;;5045958;28;20232;-63
2023/07/27 10:57:19;;;;;;;1.37;1.37;;;19.40;99.90;;;;;;5046045;28;20307;-63
2023/07/27 10:59:51;;;;;;;1.40;1.40;;;19.40;99.90;;;;;;5043981;28;20591;-63
2023/07/27 11:02:21;;;;;;;1.10;1.10;;;19.50;99.90;;;;;;5043756;28;20201;-63
2023/07/27 11:04:51;;;;;;;1.43;1.40;;;19.50;99.90;;;;;;5049049;28;20185;-63
2023/07/27 11:07:27;;;;;;;2.10;1.20;;;19.50;99.90;;;;;;5045198;28;20259;-63
2023/07/27 11:09:55;;;;;;;1.57;1.47;;;19.40;99.90;;;;;;5045289;28;20220;-63
2023/07/27 11:12:24;;;;;;;1.97;1.60;;;19.40;99.90;;;;;;5042595;28;20575;-63
2023/07/27 11:14:54;;;;;;;1.40;1.40;;;19.50;99.90;;;;;;5045942;28;20684;-63
2023/07/27 11:17:23;;;;;;;1.40;1.40;;;19.50;99.90;;;;;;5021446;28;20212;-63
2023/07/27 11:19:53;;;;;;;1.50;1.40;;;19.60;99.90;;;;;;5046407;28;20350;-63
2023/07/27 11:22:23;;;;;;;1.40;1.40;;;19.70;99.90;;;;;;5043882;28;20220;-63
2023/07/27 11:24:51;;;;;;;3.57;1.40;;;19.60;99.90;;;;;;5048076;28;20234;-63
2023/07/27 11:27:20;;;;;;;1.37;1.37;;;19.60;99.90;;;;;;5049360;28;20231;-63
2023/07/27 11:29:49;;;;;;;1.70;1.60;;;19.50;99.90;;;;;;5046696;28;20266;-63
2023/07/27 11:32:25;;;;;;;1.30;1.30;;;19.40;99.90;;;;;;5041863;28;20628;-63
2023/07/27 11:34:55;;;;;;;3.90;1.50;;;19.40;99.90;;;;;;5051524;28;20188;-63
2023/07/27 11:37:26;;;;;;;1.50;1.43;;;19.40;99.90;;;;;;5044243;28;20307;-63
2023/07/27 11:39:55;;;;;;;1.47;1.47;;;19.40;99.90;;;;;;5046832;28;20250;-63
2023/07/27 11:42:28;;;;;;;2.30;1.70;;;19.40;99.90;;;;;;5047697;28;20220;-63
2023/07/27 11:44:57;;;;;;;1.50;1.50;;;19.50;99.90;;;;;;5048100;28;20225;-62
2023/07/27 11:47:27;;;;;;;1.70;1.30;;;19.50;99.90;;;;;;5048803;28;20185;-63
2023/07/27 11:49:56;;;;;;;1.47;1.37;;;19.50;99.90;;;;;;5045706;28;20236;-63
2023/07/27 11:52:27;;;;;;;1.40;1.40;;;19.40;99.90;;;;;;5044780;28;20719;-63
2023/07/27 11:54:55;;;;;;;3.50;1.53;;;19.40;99.90;;;;;;5046054;28;20754;-63
2023/07/27 11:57:26;;;;;;;1.40;1.40;;;19.40;99.90;;;;;;5048760;28;20319;-63
2023/07/27 12:00:03;;;;;;;1.63;1.63;;;19.40;99.90;;;;;;5041406;28;20251;-62
2023/07/27 12:02:33;;;;;;;1.57;1.47;;;19.50;99.90;;;;;;5048158;28;20544;-63
2023/07/27 12:05:02;;;;;;;1.30;1.30;;;19.40;99.90;;;;;;5046259;28;20200;-63
2023/07/27 12:07:33;;;;;;;1.40;1.30;;;19.30;99.90;;;;;;5046301;28;20227;-63
2023/07/27 12:10:22;;;;;;;2.60;1.30;;;19.30;99.90;;;;;;5048370;28;20264;-63
2023/07/27 12:12:58;;;;;;;1.03;1.03;;;19.20;99.90;;;;;;5044405;28;20319;-63
2023/07/27 12:15:31;;;;;;;1.70;1.17;;;19.20;99.90;;;;;;5045350;28;20216;-63
2023/07/27 12:18:03;;;;;;;1.30;1.30;;;19.40;99.90;;;;;;5051076;28;20251;-63
2023/07/27 12:20:33;;;;;;;1.50;1.40;;;19.30;99.90;;;;;;5047567;28;20227;-63
2023/07/27 12:23:05;;;;;;;1.43;1.30;;;19.30;99.90;;;;;;5044898;28;20191;-63
2023/07/27 12:25:36;;;;;;;1.37;1.27;;;19.40;99.90;;;;;;5028901;28;20873;-63
2023/07/27 12:28:08;;;;;;;1.53;1.40;;;19.40;99.90;;;;;;5045476;28;20223;-63
2023/07/27 12:30:39;;;;;;;1.40;1.40;;;19.40;99.90;;;;;;5050815;28;20703;-63
2023/07/27 12:33:12;;;;;;;1.33;1.33;;;19.40;99.90;;;;;;5049347;28;20220;-62
2023/07/27 12:35:40;;;;;;;2.10;1.40;;;19.50;99.90;;;;;;5045076;28;20311;-63
2023/07/27 12:38:09;;;;;;;1.30;1.30;;;19.50;99.90;;;;;;5046565;28;20212;-63
2023/07/27 12:40:40;;;;;;;1.00;1.00;;;19.60;99.90;;;;;;5048150;28;20228;-63
2023/07/27 12:43:11;;;;;;;1.40;1.40;;;19.60;99.90;;;;;;5053636;28;20578;-63
2023/07/27 12:45:40;;;;;;;1.30;1.30;;;19.60;99.90;;;;;;5053658;28;20668;-63
2023/07/27 12:48:08;;;;;;;1.20;1.20;;;19.50;99.90;;;;;;5051395;28;20940;-63
2023/07/27 12:50:40;;;;;;;1.30;1.30;;;19.50;99.90;;;;;;5051871;28;20315;-63
2023/07/27 12:53:08;;;;;;;1.50;1.50;;;19.40;99.90;;;;;;5054268;28;20196;-61
2023/07/27 12:55:37;;;;;;;1.30;1.30;;;19.40;99.90;;;;;;5054837;28;20191;-63
2023/07/27 12:58:06;;;;;;;1.63;1.50;;;19.40;99.90;;;;;;5054299;28;20319;-62